X  Sluiten METAR luchtvaart weer gegevens      EHGG Eelde Airport
Temperatuur
50°F Temperatuur
32°F Dauwpunt
50% Vochtigheid



Wind
14 MPH
23 KM/U
6 M/S
12 KTS



20°
NNO
Huidig weer

Grotendeels bewolkt Grotendeels bewolkt
Luchtdruk 1026.08 (hPa) - 30.3 (inHg)
Zicht 6 (mijl) - 9.7 (km)
Vliegveld
Vliegveld code EHGG

Locatie : Eelde Airport
Afstand: 32 (mi)

Metar:
EHGG 211455Z AUTO 02012KT 330V060 9999 BKN038/// BKN048/// 10/00 Q1026 TEMPO -SHRA FEW030CB

Tijd: 21-04-2024 16:55 CEST